createdAt,value
2018-08-04T00:00:43.728Z,249.60
2018-08-04T00:03:15.216Z,256.95
2018-08-04T00:05:46.385Z,255.87
2018-08-04T00:08:17.695Z,254.35
2018-08-04T00:10:48.985Z,270.20
2018-08-04T00:13:20.018Z,264.85
2018-08-04T00:15:51.365Z,280.18
2018-08-04T00:18:22.631Z,257.65
2018-08-04T00:20:53.853Z,250.90
2018-08-04T00:23:26.583Z,250.13
2018-08-04T00:25:58.105Z,255.37
2018-08-04T00:28:29.338Z,252.95
2018-08-04T00:31:00.859Z,269.02
2018-08-04T00:33:32.061Z,269.15
2018-08-04T00:36:03.163Z,250.15
2018-08-04T00:38:34.315Z,252.50
2018-08-04T00:41:05.493Z,254.25
2018-08-04T00:43:36.670Z,257.12
2018-08-04T00:46:07.726Z,262.80
2018-08-04T00:48:38.968Z,253.42
2018-08-04T00:51:10.236Z,266.68
2018-08-04T00:53:41.281Z,254.10
2018-08-04T00:56:12.720Z,245.50
2018-08-04T00:58:43.973Z,263.05
2018-08-04T01:01:15.164Z,258.43
2018-08-04T01:03:46.431Z,262.38
2018-08-04T01:06:17.735Z,286.32
2018-08-04T01:08:49.031Z,267.18
2018-08-04T01:11:20.536Z,263.12
2018-08-04T01:13:52.091Z,277.40
2018-08-04T01:16:23.349Z,283.85
2018-08-04T01:18:54.884Z,264.65
2018-08-04T01:21:26.077Z,291.88
2018-08-04T01:23:57.308Z,262.52
2018-08-04T01:26:28.609Z,273.02
2018-08-04T01:28:59.902Z,281.73
2018-08-04T01:31:31.316Z,276.58
2018-08-04T01:34:02.613Z,256.25
2018-08-04T01:36:33.956Z,250.57
2018-08-04T01:39:12.137Z,266.70
2018-08-04T01:41:43.287Z,260.93
2018-08-04T01:44:14.475Z,260.00
2018-08-04T01:46:45.479Z,262.40
2018-08-04T01:49:16.664Z,247.15
2018-08-04T01:51:47.675Z,242.90
2018-08-04T01:54:18.911Z,239.72
2018-08-04T01:56:50.055Z,250.28
2018-08-04T01:59:21.295Z,244.95
2018-08-04T02:08:02.176Z,245.67
2018-08-04T02:10:33.508Z,241.68
2018-08-04T02:13:05.953Z,246.05
2018-08-04T02:15:37.931Z,238.55
2018-08-04T02:18:10.829Z,247.10
2018-08-04T02:20:42.020Z,243.20
2018-08-04T02:23:13.945Z,252.00
2018-08-04T02:25:45.028Z,258.13
2018-08-04T02:28:16.136Z,244.72
2018-08-04T02:30:47.292Z,232.62
2018-08-04T02:33:18.630Z,230.37
2018-08-04T02:35:49.663Z,240.72
2018-08-04T02:38:22.733Z,247.10
2018-08-04T02:40:55.856Z,228.22
2018-08-04T02:43:26.923Z,246.05
2018-08-04T02:45:58.660Z,260.82
2018-08-04T02:48:29.967Z,248.65
2018-08-04T02:51:01.443Z,248.38
2018-08-04T02:53:32.577Z,235.93
2018-08-04T02:56:03.759Z,234.70
2018-08-04T02:58:35.000Z,232.40
2018-08-04T03:01:06.104Z,234.22
2018-08-04T03:03:37.318Z,229.15
2018-08-04T03:06:08.504Z,231.60
2018-08-04T03:08:39.638Z,223.25
2018-08-04T03:11:10.743Z,229.90
2018-08-04T03:13:41.828Z,234.50
2018-08-04T03:16:12.931Z,227.85
2018-08-04T03:18:44.068Z,239.32
2018-08-04T03:21:15.108Z,242.18
2018-08-04T03:23:46.144Z,259.05
2018-08-04T03:26:17.399Z,243.27
2018-08-04T03:28:48.795Z,251.98
2018-08-04T03:31:19.964Z,240.92
2018-08-04T03:33:50.967Z,248.55
2018-08-04T03:36:22.105Z,244.28
2018-08-04T03:38:53.148Z,246.53
2018-08-04T03:41:24.530Z,245.90
2018-08-04T03:43:55.623Z,243.10
2018-08-04T03:46:26.791Z,233.63
2018-08-04T03:48:58.003Z,229.05
2018-08-04T03:51:29.131Z,227.95
2018-08-04T03:54:00.228Z,233.57
2018-08-04T03:56:32.442Z,250.43
2018-08-04T03:59:03.533Z,238.62
2018-08-04T04:01:34.668Z,252.68
2018-08-04T04:04:05.644Z,238.43
2018-08-04T04:06:37.046Z,241.10
2018-08-04T04:09:10.427Z,259.55
2018-08-04T04:11:41.733Z,246.93
2018-08-04T04:14:13.542Z,250.30
2018-08-04T04:16:44.630Z,260.80
2018-08-04T04:19:15.989Z,251.42
2018-08-04T04:21:47.148Z,241.50
2018-08-04T04:24:18.288Z,244.47
2018-08-04T04:26:49.431Z,260.45
2018-08-04T04:29:20.683Z,238.18
2018-08-04T04:31:51.863Z,248.05
2018-08-04T04:34:23.088Z,240.35
2018-08-04T04:36:54.269Z,248.00
2018-08-04T04:39:25.575Z,240.57
2018-08-04T04:41:56.809Z,247.30
2018-08-04T04:44:27.904Z,250.82
2018-08-04T04:46:59.111Z,242.20
2018-08-04T04:49:30.355Z,239.10
2018-08-04T04:52:02.717Z,232.25
2018-08-04T04:54:34.485Z,243.70
2018-08-04T04:57:06.482Z,227.15
2018-08-04T04:59:37.711Z,236.50
2018-08-04T05:02:08.890Z,240.20
2018-08-04T05:04:39.980Z,231.02
2018-08-04T05:07:11.139Z,230.77
2018-08-04T05:09:42.204Z,242.05
2018-08-04T05:12:13.550Z,247.93
2018-08-04T05:14:44.635Z,255.83
2018-08-04T05:17:21.403Z,269.40
2018-08-04T05:19:53.593Z,265.45
2018-08-04T05:22:24.912Z,245.65
2018-08-04T05:24:56.004Z,235.45
2018-08-04T05:27:27.284Z,246.65
2018-08-04T05:29:58.860Z,257.70
2018-08-04T05:32:29.981Z,247.85
2018-08-04T05:35:01.367Z,243.30
2018-08-04T05:37:32.671Z,245.75
2018-08-04T05:40:04.336Z,251.95
2018-08-04T05:42:35.507Z,245.00
2018-08-04T05:45:07.601Z,252.28
2018-08-04T05:47:43.984Z,240.22
2018-08-04T05:50:18.996Z,236.92
2018-08-04T05:52:52.271Z,233.57
2018-08-04T05:55:23.984Z,244.55
2018-08-04T05:57:55.305Z,238.52
2018-08-04T06:00:26.510Z,250.28
2018-08-04T06:02:57.895Z,255.87
2018-08-04T06:05:28.934Z,250.22
2018-08-04T06:08:00.080Z,236.57
2018-08-04T06:13:37.449Z,234.65
2018-08-04T06:16:11.500Z,231.30
2018-08-04T06:18:47.252Z,241.42
2018-08-04T06:21:24.764Z,237.32
2018-08-04T06:23:56.201Z,229.15
2018-08-04T06:26:27.420Z,241.25
2018-08-04T06:28:58.570Z,234.77
2018-08-04T06:31:30.010Z,235.25
2018-08-04T06:34:01.005Z,228.07
2018-08-04T06:36:32.320Z,229.50
2018-08-04T06:39:04.494Z,228.07
2018-08-04T06:41:36.648Z,234.43
2018-08-04T06:44:07.776Z,244.90
2018-08-04T06:46:39.179Z,230.85
2018-08-04T06:49:10.545Z,232.87
2018-08-04T06:51:41.936Z,242.97
2018-08-04T06:54:13.110Z,242.30
2018-08-04T06:56:44.430Z,242.65
2018-08-04T06:59:15.534Z,243.07
2018-08-04T07:01:47.057Z,243.20
2018-08-04T07:04:18.158Z,240.47
2018-08-04T07:06:49.407Z,250.28
2018-08-04T07:09:20.517Z,249.40
2018-08-04T07:11:51.941Z,274.00
2018-08-04T07:14:23.000Z,260.57
2018-08-04T07:16:54.072Z,251.80
2018-08-04T07:19:25.152Z,253.77
2018-08-04T07:21:56.283Z,266.25
2018-08-04T07:24:27.277Z,257.67
2018-08-04T07:26:58.723Z,256.90
2018-08-04T07:29:29.793Z,261.27
2018-08-04T07:32:01.503Z,253.58
2018-08-04T07:34:32.603Z,266.35
2018-08-04T07:37:04.183Z,267.55
2018-08-04T07:39:35.296Z,258.77
2018-08-04T07:42:06.600Z,257.32
2018-08-04T07:44:37.647Z,283.25
2018-08-04T07:47:09.160Z,276.67
2018-08-04T07:49:40.064Z,251.65
2018-08-04T07:52:11.665Z,244.13
2018-08-04T07:54:43.132Z,279.57
2018-08-04T07:57:14.333Z,250.97
2018-08-04T07:59:45.496Z,268.63
2018-08-04T08:02:16.599Z,247.78
2018-08-04T08:04:47.605Z,247.33
2018-08-04T08:07:21.879Z,245.55
2018-08-04T08:09:53.644Z,258.60
2018-08-04T08:12:25.541Z,261.85
2018-08-04T08:14:56.644Z,268.37
2018-08-04T08:17:27.828Z,251.52
2018-08-04T08:19:59.000Z,268.88
2018-08-04T08:22:38.964Z,288.02
2018-08-04T08:25:10.665Z,252.62
2018-08-04T08:27:41.788Z,267.10
2018-08-04T08:30:15.765Z,253.62
2018-08-04T08:32:46.865Z,246.85
2018-08-04T08:35:18.035Z,261.25
2018-08-04T08:37:49.330Z,263.98
2018-08-04T08:40:24.734Z,277.80
2018-08-04T08:42:55.905Z,249.55
2018-08-04T08:45:28.512Z,251.25
2018-08-04T08:47:59.703Z,246.72
2018-08-04T08:50:31.344Z,273.20
2018-08-04T08:53:03.593Z,267.00
2018-08-04T08:55:35.130Z,253.62
2018-08-04T08:58:08.619Z,262.75
2018-08-04T09:00:40.172Z,269.65
2018-08-04T09:03:12.934Z,281.05
2018-08-04T09:05:44.024Z,299.32
2018-08-04T09:08:15.526Z,268.02
2018-08-04T09:10:46.743Z,280.25
2018-08-04T09:13:18.037Z,276.45
2018-08-04T09:15:49.640Z,275.55
2018-08-04T09:18:20.872Z,256.93
2018-08-04T09:20:51.899Z,267.73
2018-08-04T09:23:22.979Z,276.42
2018-08-04T09:25:53.980Z,291.38
2018-08-04T09:28:25.218Z,319.62
2018-08-04T09:30:56.447Z,298.35
2018-08-04T09:33:27.570Z,264.40
2018-08-04T09:35:59.252Z,290.60
2018-08-04T09:38:30.339Z,303.88
2018-08-04T09:41:01.997Z,298.23
2018-08-04T09:43:33.205Z,312.85
2018-08-04T09:46:04.407Z,287.60
2018-08-04T09:48:35.416Z,297.70
2018-08-04T09:51:07.132Z,302.32
2018-08-04T09:53:38.290Z,320.33
2018-08-04T09:56:10.770Z,299.50
2018-08-04T09:58:41.982Z,286.43
2018-08-04T10:01:18.237Z,312.98
2018-08-04T10:03:49.446Z,304.60
2018-08-04T10:06:20.512Z,312.38
2018-08-04T10:08:51.592Z,324.60
2018-08-04T10:11:22.832Z,325.00
2018-08-04T10:13:53.964Z,356.38
2018-08-04T10:16:25.183Z,360.48
2018-08-04T10:18:56.624Z,294.85
2018-08-04T10:21:27.784Z,293.30
2018-08-04T10:24:00.131Z,277.52
2018-08-04T10:26:33.421Z,278.40
2018-08-04T10:29:04.699Z,314.40
2018-08-04T10:31:35.934Z,326.77
2018-08-04T10:34:07.385Z,308.55
2018-08-04T10:36:38.505Z,287.48
2018-08-04T10:39:11.046Z,277.48
2018-08-04T10:41:42.097Z,288.35
2018-08-04T10:44:13.085Z,274.27
2018-08-04T10:46:44.516Z,299.50
2018-08-04T10:49:15.688Z,273.73
2018-08-04T10:51:46.897Z,295.33
2018-08-04T10:54:19.371Z,290.45
2018-08-04T10:56:50.489Z,273.30
2018-08-04T10:59:22.244Z,312.57
2018-08-04T11:01:53.391Z,290.73
2018-08-04T11:04:24.628Z,280.45
2018-08-04T11:06:55.829Z,272.82
2018-08-04T11:09:27.362Z,277.65
2018-08-04T11:11:58.508Z,264.42
2018-08-04T11:14:29.894Z,290.32
2018-08-04T11:17:01.141Z,275.68
2018-08-04T11:19:32.502Z,280.65
2018-08-04T11:22:04.893Z,282.25
2018-08-04T11:24:36.003Z,301.02
2018-08-04T11:27:07.205Z,310.60
2018-08-04T11:29:38.315Z,281.70
2018-08-04T11:32:09.859Z,293.25
2018-08-04T11:34:40.934Z,309.37
2018-08-04T11:37:12.724Z,295.88
2018-08-04T11:39:43.917Z,297.17
2018-08-04T11:42:15.429Z,287.60
2018-08-04T11:44:46.777Z,294.60
2018-08-04T11:47:18.122Z,274.88
2018-08-04T11:49:49.112Z,314.77
2018-08-04T11:52:20.295Z,280.00
2018-08-04T11:54:51.532Z,332.45
2018-08-04T11:57:23.215Z,314.75
2018-08-04T11:59:54.444Z,296.90
2018-08-04T12:02:25.685Z,273.43
2018-08-04T12:04:56.965Z,266.55
2018-08-04T12:07:28.219Z,289.38
2018-08-04T12:09:59.447Z,286.18
2018-08-04T12:12:30.701Z,284.00
2018-08-04T12:15:02.435Z,286.25
2018-08-04T12:17:33.466Z,291.52
2018-08-04T12:20:04.933Z,266.27
2018-08-04T12:22:36.844Z,263.23
2018-08-04T12:25:09.492Z,270.48
2018-08-04T12:27:41.370Z,264.32
2018-08-04T12:30:14.401Z,246.70
2018-08-04T12:32:45.553Z,250.47
2018-08-04T12:35:16.649Z,274.02
2018-08-04T12:37:48.047Z,276.27
2018-08-04T12:40:19.555Z,278.07
2018-08-04T12:42:50.700Z,273.93
2018-08-04T12:45:22.050Z,315.98
2018-08-04T12:47:53.308Z,287.25
2018-08-04T12:50:24.387Z,285.65
2018-08-04T12:52:55.688Z,296.32
2018-08-04T12:55:28.351Z,291.00
2018-08-04T12:58:00.392Z,308.65
2018-08-04T13:00:32.181Z,301.42
2018-08-04T13:03:15.081Z,264.85
2018-08-04T13:05:56.267Z,277.35
2018-08-04T13:08:29.004Z,263.02
2018-08-04T13:11:00.353Z,255.03
2018-08-04T13:13:31.534Z,290.27
2018-08-04T13:16:02.874Z,274.62
2018-08-04T13:18:34.055Z,277.30
2018-08-04T13:21:05.281Z,281.10
2018-08-04T13:23:36.524Z,269.45
2018-08-04T13:26:07.768Z,280.50
2018-08-04T13:28:38.833Z,287.50
2018-08-04T13:31:10.418Z,291.00
2018-08-04T13:33:41.544Z,284.05
2018-08-04T13:36:14.961Z,322.95
2018-08-04T13:38:46.267Z,300.22
2018-08-04T13:41:18.183Z,272.10
2018-08-04T13:43:49.309Z,268.93
2018-08-04T13:46:21.168Z,276.82
2018-08-04T13:48:52.214Z,306.02
2018-08-04T13:51:23.544Z,292.27
2018-08-04T13:53:55.006Z,268.85
2018-08-04T13:56:26.123Z,297.80
2018-08-04T13:58:57.430Z,287.33
2018-08-04T14:01:28.544Z,272.23
2018-08-04T14:03:59.816Z,290.12
2018-08-04T14:06:31.295Z,289.30
2018-08-04T14:09:02.484Z,288.18
2018-08-04T14:11:33.524Z,269.87
2018-08-04T14:14:04.729Z,304.52
2018-08-04T14:16:35.789Z,295.23
2018-08-04T14:19:07.209Z,298.95
2018-08-04T14:21:38.269Z,304.90
2018-08-04T14:24:09.402Z,294.48
2018-08-04T14:26:40.531Z,331.05
2018-08-04T14:29:11.633Z,316.35
2018-08-04T14:31:42.713Z,315.77
2018-08-04T14:34:13.867Z,307.87
2018-08-04T14:36:44.934Z,308.00
2018-08-04T14:39:16.028Z,318.65
2018-08-04T14:41:47.113Z,285.98
2018-08-04T14:44:18.326Z,306.13
2018-08-04T14:46:49.505Z,299.45
2018-08-04T14:49:24.884Z,306.35
2018-08-04T14:51:57.031Z,315.07
2018-08-04T14:54:28.500Z,298.80
2018-08-04T14:56:59.605Z,303.18
2018-08-04T14:59:31.475Z,324.20
2018-08-04T15:02:02.600Z,316.95
2018-08-04T15:04:33.844Z,342.27
2018-08-04T15:07:04.983Z,309.83
2018-08-04T15:09:36.344Z,269.95
2018-08-04T15:12:07.537Z,309.80
2018-08-04T15:14:38.746Z,295.05
2018-08-04T15:17:10.332Z,289.60
2018-08-04T15:19:41.521Z,295.42
2018-08-04T15:22:12.459Z,296.32
2018-08-04T15:24:43.497Z,292.02
2018-08-04T15:27:15.856Z,302.07
2018-08-04T15:29:46.888Z,297.45
2018-08-04T15:32:18.111Z,314.48
2018-08-04T15:34:49.462Z,309.73
2018-08-04T15:37:20.620Z,304.73
2018-08-04T15:39:52.198Z,311.37
2018-08-04T15:42:23.244Z,349.67
2018-08-04T15:44:54.496Z,301.42
2018-08-04T15:47:25.457Z,303.45
2018-08-04T15:49:56.953Z,294.45
2018-08-04T15:52:28.132Z,325.62
2018-08-04T15:54:59.217Z,356.65
2018-08-04T15:57:30.316Z,324.23
2018-08-04T16:00:01.345Z,302.95
2018-08-04T16:02:32.464Z,321.02
2018-08-04T16:05:06.182Z,320.45
2018-08-04T16:07:37.143Z,308.27
2018-08-04T16:10:10.107Z,298.68
2018-08-04T16:12:41.225Z,285.30
2018-08-04T16:15:12.701Z,306.47
2018-08-04T16:17:44.496Z,352.38
2018-08-04T16:20:16.901Z,320.73
2018-08-04T16:22:48.041Z,322.80
2018-08-04T16:25:19.147Z,299.88
2018-08-04T16:27:51.200Z,321.50
2018-08-04T16:36:29.511Z,308.52
2018-08-04T16:39:00.370Z,334.55
2018-08-04T16:41:31.391Z,305.37
2018-08-04T16:44:04.199Z,319.90
2018-08-04T16:46:35.228Z,307.27
2018-08-04T16:49:06.140Z,293.45
2018-08-04T16:51:37.009Z,286.48
2018-08-04T16:54:08.566Z,314.90
2018-08-04T16:56:39.706Z,326.67
2018-08-04T16:59:10.778Z,298.15
2018-08-04T17:01:41.793Z,316.25
2018-08-04T17:04:13.899Z,298.95
2018-08-04T17:06:44.901Z,324.23
2018-08-04T17:09:15.878Z,330.40
2018-08-04T17:11:47.351Z,334.43
2018-08-04T17:14:18.355Z,323.32
2018-08-04T17:16:49.692Z,330.73
2018-08-04T17:19:20.838Z,303.67
2018-08-04T17:21:52.405Z,290.73
2018-08-04T17:24:23.409Z,310.57
2018-08-04T17:26:54.569Z,305.65
2018-08-04T17:29:25.999Z,302.90
2018-08-04T17:31:57.393Z,311.65
2018-08-04T17:34:29.061Z,308.95
2018-08-04T17:37:01.786Z,305.70
2018-08-04T17:39:34.264Z,317.57
2018-08-04T17:42:07.316Z,335.45
2018-08-04T17:44:39.917Z,352.75
2018-08-04T17:47:11.738Z,315.65
2018-08-04T17:49:42.758Z,323.35
2018-08-04T17:52:13.869Z,343.07
2018-08-04T17:54:44.954Z,336.27
2018-08-04T17:57:16.726Z,310.52
2018-08-04T17:59:47.884Z,324.50
2018-08-04T18:02:20.006Z,320.95
2018-08-04T18:04:51.576Z,339.88
2018-08-04T18:07:22.741Z,317.25
2018-08-04T18:09:54.022Z,330.80
2018-08-04T18:12:25.068Z,302.43
2018-08-04T18:14:56.205Z,313.18
2018-08-04T18:17:27.399Z,284.90
2018-08-04T18:19:58.565Z,306.95
2018-08-04T18:22:29.959Z,341.68
2018-08-04T18:25:01.256Z,305.57
2018-08-04T18:27:32.642Z,326.52
2018-08-04T18:30:05.551Z,328.50
2018-08-04T18:32:36.668Z,323.52
2018-08-04T18:35:07.723Z,305.57
2018-08-04T18:37:38.900Z,305.92
2018-08-04T18:40:10.077Z,315.45
2018-08-04T18:42:41.159Z,291.20
2018-08-04T18:45:12.921Z,305.10
2018-08-04T18:47:44.977Z,315.30
2018-08-04T18:50:19.269Z,325.18
2018-08-04T18:52:50.945Z,300.93
2018-08-04T18:55:22.068Z,320.50
2018-08-04T18:57:53.167Z,314.42
2018-08-04T19:00:24.236Z,314.60
2018-08-04T19:02:55.423Z,294.07
2018-08-04T19:05:26.624Z,319.95
2018-08-04T19:07:58.433Z,314.77
2018-08-04T19:10:33.170Z,311.85
2018-08-04T19:13:04.893Z,294.40
2018-08-04T19:15:36.458Z,310.93
2018-08-04T19:18:09.132Z,301.85
2018-08-04T19:20:40.342Z,292.57
2018-08-04T19:23:14.351Z,292.07
2018-08-04T19:25:45.312Z,277.10
2018-08-04T19:28:16.325Z,284.73
2018-08-04T19:30:47.988Z,288.82
2018-08-04T19:33:19.174Z,272.40
2018-08-04T19:35:50.113Z,292.40
2018-08-04T19:38:21.135Z,294.02
2018-08-04T19:40:52.731Z,265.18
2018-08-04T19:43:23.845Z,271.52
2018-08-04T19:45:54.860Z,249.07
2018-08-04T19:48:26.889Z,285.15
2018-08-04T19:50:58.308Z,272.10
2018-08-04T19:53:29.684Z,262.55
2018-08-04T19:56:00.711Z,275.43
2018-08-04T19:58:32.001Z,268.55
2018-08-04T20:01:03.575Z,279.07
2018-08-04T20:03:34.589Z,250.40
2018-08-04T20:06:05.668Z,271.40
2018-08-04T20:08:37.186Z,268.15
2018-08-04T20:11:08.855Z,278.48
2018-08-04T20:13:40.113Z,278.07
2018-08-04T20:16:11.063Z,272.70
2018-08-04T20:18:42.599Z,285.88
2018-08-04T20:21:13.624Z,316.35
2018-08-04T20:23:44.956Z,288.87
2018-08-04T20:26:15.929Z,269.37
2018-08-04T20:28:48.244Z,285.27
2018-08-04T20:31:19.339Z,272.80
2018-08-04T20:33:50.521Z,290.62
2018-08-04T20:36:21.768Z,273.10
2018-08-04T20:38:52.800Z,299.98
2018-08-04T20:41:23.742Z,294.20
2018-08-04T20:43:54.844Z,267.27
2018-08-04T20:46:26.881Z,294.00
2018-08-04T20:48:58.008Z,294.98
2018-08-04T20:51:29.164Z,259.32
2018-08-04T20:54:00.234Z,267.35
2018-08-04T20:56:31.477Z,292.92
2018-08-04T20:59:03.075Z,271.85
2018-08-04T21:01:50.993Z,262.70
2018-08-04T21:04:22.429Z,266.60
2018-08-04T21:06:53.644Z,257.92
2018-08-04T21:09:24.798Z,262.75
2018-08-04T21:11:56.841Z,271.27
2018-08-04T21:14:28.598Z,264.75
2018-08-04T21:17:00.396Z,255.60
2018-08-04T21:19:31.409Z,259.32
2018-08-04T21:22:03.801Z,262.50
2018-08-04T21:24:34.864Z,274.75
2018-08-04T21:27:05.792Z,266.55
2018-08-04T21:29:37.381Z,271.90
2018-08-04T21:32:08.497Z,281.80
2018-08-04T21:34:39.664Z,284.57
2018-08-04T21:37:10.693Z,260.02
2018-08-04T21:39:41.717Z,266.98
2018-08-04T21:42:13.068Z,257.65
2018-08-04T21:44:44.397Z,258.10
2018-08-04T21:47:15.385Z,268.88
2018-08-04T21:49:46.761Z,280.85
2018-08-04T21:52:17.822Z,253.30
2018-08-04T21:54:49.883Z,240.10
2018-08-04T21:57:22.785Z,252.18
2018-08-04T21:59:53.780Z,259.07
2018-08-04T22:02:25.364Z,257.07
2018-08-04T22:05:08.401Z,244.72
2018-08-04T22:07:51.227Z,256.17
2018-08-04T22:10:22.523Z,237.75
2018-08-04T22:12:53.653Z,239.23
2018-08-04T22:15:25.148Z,263.80
2018-08-04T22:17:56.320Z,412.92
2018-08-04T22:20:30.271Z,284.57
2018-08-04T22:23:01.718Z,263.70
2018-08-04T22:25:33.346Z,254.68
2018-08-04T22:28:06.064Z,244.32
2018-08-04T22:30:38.730Z,245.07
2018-08-04T22:33:11.700Z,238.70
2018-08-04T22:35:42.888Z,241.53
2018-08-04T22:38:24.292Z,247.35
2018-08-04T22:41:13.084Z,241.88
2018-08-04T22:43:54.864Z,233.53
2018-08-04T22:46:26.047Z,238.57
2018-08-04T22:48:57.213Z,240.25
2018-08-04T22:51:29.551Z,287.55
2018-08-04T22:54:00.796Z,278.58
2018-08-04T22:56:32.039Z,248.68
2018-08-04T22:59:04.957Z,245.02
2018-08-04T23:01:36.040Z,247.78
2018-08-04T23:04:07.019Z,236.37
2018-08-04T23:06:38.083Z,245.30
2018-08-04T23:09:12.295Z,233.97
2018-08-04T23:11:43.313Z,248.05
2018-08-04T23:14:14.492Z,238.60
2018-08-04T23:16:45.484Z,245.73
2018-08-04T23:19:16.500Z,239.95
2018-08-04T23:21:49.105Z,235.17
2018-08-04T23:24:20.104Z,245.20
2018-08-04T23:26:51.284Z,247.07
2018-08-04T23:29:22.331Z,223.57
2018-08-04T23:31:53.732Z,232.87
2018-08-04T23:34:24.862Z,230.50
2018-08-04T23:36:56.104Z,224.92
2018-08-04T23:39:27.218Z,243.57
2018-08-04T23:41:58.520Z,233.23
2018-08-04T23:44:29.668Z,240.03
2018-08-04T23:47:00.930Z,239.15
2018-08-04T23:49:31.979Z,228.50
2018-08-04T23:52:03.781Z,229.85
2018-08-04T23:54:34.705Z,243.75
2018-08-04T23:57:05.814Z,233.35
2018-08-04T23:59:36.830Z,242.95
